Time;durP1;ratioP1;P1;durP2;ratioP2;P2;SDS_P1;SDS_P2;PMS_P1;PMS_P2;Temp;Humidity;BMP_temperature;BMP_pressure;BME280_temperature;BME280_humidity;BME280_pressure;Samples;Min_cycle;Max_cycle;Signal;HPM_P1;HPM_P2
2023/07/15 08:57:29;;;;;;;7.32;2.20;;;;;;;22.99;73.18;100344.13;5111547;27;22087;-66
2023/07/15 08:59:56;;;;;;;6.05;2.08;;;;;;;22.97;75.14;100355.47;5116007;27;20113;-67
2023/07/15 09:02:22;;;;;;;4.28;2.00;;;;;;;22.95;75.29;100365.22;5103924;27;20028;-66
2023/07/15 09:04:47;;;;;;;9.50;1.98;;;;;;;22.92;74.29;100363.13;5089672;28;20033;-66
2023/07/15 09:07:13;;;;;;;4.63;1.75;;;;;;;22.88;73.82;100365.69;5089447;28;20032;-66
2023/07/15 09:09:39;;;;;;;7.30;2.03;;;;;;;22.82;71.47;100373.28;5088510;28;20032;-66
2023/07/15 09:12:06;;;;;;;7.43;2.10;;;;;;;22.77;66.78;100359.66;5089484;28;20055;-65
2023/07/15 09:14:46;;;;;;;3.60;2.13;;;;;;;22.74;67.39;100363.06;5103791;28;20057;-67
2023/07/15 09:17:16;;;;;;;6.50;1.83;;;;;;;22.76;69.17;100346.97;5108562;28;20031;-65
2023/07/15 09:19:43;;;;;;;4.20;1.98;;;;;;;22.80;68.94;100363.72;5110117;28;20035;-66
2023/07/15 09:22:09;;;;;;;3.13;1.85;;;;;;;22.85;67.91;100360.81;5103268;28;20471;-66
2023/07/15 09:24:37;;;;;;;5.35;2.00;;;;;;;22.94;67.49;100363.59;5110680;28;20039;-66
2023/07/15 09:27:03;;;;;;;5.53;2.00;;;;;;;22.99;66.86;100357.91;5130117;27;20054;-66
2023/07/15 09:29:29;;;;;;;5.35;2.03;;;;;;;23.08;67.63;100360.72;5130101;27;20023;-67
2023/07/15 09:31:55;;;;;;;3.70;1.75;;;;;;;23.11;66.33;100360.88;5130395;27;20074;-66
2023/07/15 09:34:21;;;;;;;7.80;2.17;;;;;;;23.12;67.35;100365.28;5130127;27;20030;-67
2023/07/15 09:36:46;;;;;;;4.65;1.75;;;;;;;23.12;67.15;100359.78;5121388;27;20054;-67
2023/07/15 09:39:17;;;;;;;4.55;1.95;;;;;;;23.07;68.24;100370.94;5107027;28;20024;-65
2023/07/15 09:41:43;;;;;;;;;;;;;;;23.14;67.26;100368.56;5094362;28;20035;-66
2023/07/15 09:44:08;;;;;;;5.57;2.03;;;;;;;23.01;68.10;100374.97;5091539;28;19969;-66
2023/07/15 09:46:34;;;;;;;7.25;1.77;;;;;;;23.03;69.40;100372.72;5104603;28;20032;-67
2023/07/15 09:48:59;;;;;;;7.22;2.33;;;;;;;23.01;68.44;100386.81;5087375;28;20063;-74
2023/07/15 09:51:26;;;;;;;6.05;1.95;;;;;;;22.98;69.26;100397.69;5087456;28;20036;-71
2023/07/15 09:53:55;;;;;;;8.10;2.10;;;;;;;22.97;69.81;100404.34;5087783;28;20060;-67
2023/07/15 09:56:30;;;;;;;7.60;1.92;;;;;;;22.95;70.99;100403.88;5097519;28;20047;-67
2023/07/15 09:59:00;;;;;;;4.38;2.08;;;;;;;22.88;72.45;100407.06;5108902;28;20028;-68
2023/07/15 10:01:37;;;;;;;3.10;1.98;;;;;;;22.85;71.83;100409.66;5102108;28;20036;-66
2023/07/15 10:04:29;;;;;;;7.63;2.17;;;;;;;22.78;72.58;100405.41;5097230;28;20082;-68
2023/07/15 10:06:55;;;;;;;6.28;2.03;;;;;;;22.72;73.66;100392.91;5084107;28;20648;-67
2023/07/15 10:09:21;;;;;;;4.10;2.03;;;;;;;22.71;77.21;100409.78;5075315;28;20111;-69
2023/07/15 10:11:48;;;;;;;11.30;2.25;;;;;;;22.67;80.46;100398.53;5073939;28;20031;-68
2023/07/15 10:14:14;;;;;;;4.30;2.00;;;;;;;22.60;88.88;100390.75;5074786;28;20033;-67
2023/07/15 10:16:40;;;;;;;6.55;2.30;;;;;;;22.50;95.66;100391.00;5068869;28;20104;-65
2023/07/15 10:19:44;;;;;;;12.10;2.13;;;;;;;22.43;96.64;100376.84;5073235;28;20036;-66
2023/07/15 10:22:10;;;;;;;10.45;2.10;;;;;;;22.28;99.62;100361.50;5070003;28;20028;-65
2023/07/15 10:24:36;;;;;;;6.40;2.20;;;;;;;22.20;100.00;100374.09;5072465;28;20052;-65
2023/07/15 10:27:05;;;;;;;4.70;2.03;;;;;;;22.17;100.00;100368.44;5078200;28;20464;-64
2023/07/15 10:29:31;;;;;;;5.18;2.05;;;;;;;22.16;100.00;100375.06;5089791;28;20078;-67
2023/07/15 10:32:11;;;;;;;4.25;1.80;;;;;;;22.20;100.00;100378.81;5089547;28;20029;-69
2023/07/15 10:34:39;;;;;;;5.85;2.03;;;;;;;22.19;100.00;100377.19;5074917;28;20032;-68
2023/07/15 10:37:11;;;;;;;6.35;1.98;;;;;;;22.21;100.00;100366.66;5074401;28;20035;-69
2023/07/15 10:39:38;;;;;;;4.10;2.05;;;;;;;22.33;100.00;100366.94;5075227;28;20035;-69
2023/07/15 10:42:14;;;;;;;4.65;2.08;;;;;;;22.35;100.00;100367.41;5074627;28;20024;-68
2023/07/15 10:44:41;;;;;;;3.28;2.13;;;;;;;22.41;100.00;100368.91;5069144;28;20031;-67
2023/07/15 10:47:08;;;;;;;4.65;1.73;;;;;;;22.39;100.00;100376.69;5067241;28;20349;-71
2023/07/15 10:49:34;;;;;;;5.40;1.90;;;;;;;22.39;100.00;100375.84;5072081;28;20043;-70
2023/07/15 10:52:02;;;;;;;3.53;1.75;;;;;;;22.39;100.00;100371.19;5074765;28;20372;-69
2023/07/15 10:54:29;;;;;;;4.18;1.90;;;;;;;22.49;100.00;100372.84;5071278;28;20040;-69
2023/07/15 10:56:55;;;;;;;3.85;1.95;;;;;;;22.58;100.00;100378.38;5072771;28;20052;-68
2023/07/15 10:59:24;;;;;;;5.38;2.10;;;;;;;22.58;100.00;100387.47;5082368;28;20124;-69
2023/07/15 11:01:49;;;;;;;5.78;1.67;;;;;;;22.56;100.00;100383.41;5091743;28;20032;-67
2023/07/15 11:04:19;;;;;;;5.25;2.03;;;;;;;22.60;100.00;100376.13;5086455;28;20383;-70
2023/07/15 11:06:45;;;;;;;3.75;1.85;;;;;;;22.53;100.00;100384.06;5072584;28;20071;-67
2023/07/15 11:09:18;;;;;;;7.18;2.20;;;;;;;22.57;100.00;100379.50;5072203;28;20949;-67
2023/07/15 11:11:43;;;;;;;8.70;2.10;;;;;;;22.68;92.52;100383.63;5084231;28;20039;-69
2023/07/15 11:14:42;;;;;;;4.18;2.10;;;;;;;22.88;96.74;100370.41;5080453;28;20115;-67
2023/07/15 11:17:07;;;;;;;7.25;1.80;;;;;;;22.94;90.12;100377.41;5064014;28;20040;-67
2023/07/15 11:19:33;;;;;;;4.30;1.92;;;;;;;22.98;80.90;100376.44;5060665;28;20080;-66
2023/07/15 11:22:04;;;;;;;3.80;1.90;;;;;;;23.03;83.25;100380.97;5092916;28;20092;-67
2023/07/15 11:24:29;;;;;;;3.28;2.00;;;;;;;23.04;80.98;100363.31;5075668;28;20504;-67
2023/07/15 11:26:58;;;;;;;4.70;1.98;;;;;;;23.07;78.11;100368.19;5073570;28;20064;-66
2023/07/15 11:29:24;;;;;;;5.28;1.90;;;;;;;23.11;71.14;100379.41;5073566;28;20081;-65
2023/07/15 11:31:54;;;;;;;2.78;1.70;;;;;;;23.16;69.14;100371.00;5086796;28;20032;-65
2023/07/15 11:34:21;;;;;;;5.35;2.05;;;;;;;23.24;72.69;100374.91;5075893;28;20033;-64
2023/07/15 11:36:49;;;;;;;6.07;1.80;;;;;;;23.29;71.68;100361.72;5078419;28;20278;-66
2023/07/15 11:39:15;;;;;;;12.32;2.20;;;;;;;23.41;73.71;100355.56;5085499;28;20672;-70
2023/07/15 11:41:43;;;;;;;10.27;2.25;;;;;;;23.43;72.00;100358.84;5071647;28;20054;-67
2023/07/15 11:44:14;;;;;;;8.85;2.17;;;;;;;23.37;71.24;100351.88;5073358;28;20028;-67
2023/07/15 11:46:41;;;;;;;7.25;2.03;;;;;;;23.41;71.26;100350.06;5073265;28;20040;-67
2023/07/15 11:49:07;;;;;;;8.30;2.20;;;;;;;23.42;72.00;100345.38;5071241;28;20032;-67
2023/07/15 11:51:35;;;;;;;6.43;1.88;;;;;;;23.50;76.18;100337.06;5073193;28;20035;-67
2023/07/15 17:33:09;;;;;;;6.30;3.20;;;;;;;21.54;100.00;100352.59;5078525;27;20774;-71
